Terminal Aerodrome Forecast
Issued by NWS

Home | Current Version | Previous Version | Text Only | Print | Product List | Glossary On
Versions: 1 2 3 4 5 6 7 8 9 10 11 12 13 14 15 16 17 18 19 20 21 22 23 24 25 26 27 28 29 30 31
000
FTUS43 KPAH 221400 AAA
TAFOWB
TAF AMD
KOWB 221450Z 2215/2312 03008KT P6SM SCT025
      TEMPO 2215/2216 BKN025
     FM221600 03008KT P6SM SCT030
     FM230100 VRB02KT P6SM SKC=

USA.gov is the U.S. government's official web portal to all federal, state and local government web resources and services.